Terminal Aerodrome Forecast
Issued by NWS

Home | Current Version | Previous Version | Text Only | Print | Product List | Glossary On
Versions: 1 2 3 4 5 6 7 8 9 10 11 12 13 14
000
FTUS42 KMLB 272300
TAFSUA
TAF
KSUA 272321Z 2800/2824 04010KT P6SM FEW030
     FM280200 06006KT P6SM SCT025
     FM280600 VRB03KT P6SM SCT020
     FM281500 09007KT P6SM SCT040=

USA.gov is the U.S. government's official web portal to all federal, state and local government web resources and services.